sensor_id;sensor_type;location;lat;lon;timestamp;temperature;humidity
24450;DHT22;13349;50.984;5.822;2023-03-23T00:01:22;12.80;99.90
24450;DHT22;13349;50.984;5.822;2023-03-23T00:03:52;12.80;99.90
24450;DHT22;13349;50.984;5.822;2023-03-23T00:06:22;12.90;99.90
24450;DHT22;13349;50.984;5.822;2023-03-23T00:08:50;12.90;99.90
24450;DHT22;13349;50.984;5.822;2023-03-23T00:11:22;12.90;99.90
24450;DHT22;13349;50.984;5.822;2023-03-23T00:13:52;12.80;99.90
24450;DHT22;13349;50.984;5.822;2023-03-23T00:16:19;12.80;99.90
24450;DHT22;13349;50.984;5.822;2023-03-23T00:18:57;12.80;99.90
24450;DHT22;13349;50.984;5.822;2023-03-23T00:21:25;12.80;99.90
24450;DHT22;13349;50.984;5.822;2023-03-23T00:23:58;12.80;99.90
24450;DHT22;13349;50.984;5.822;2023-03-23T00:26:26;12.90;99.90
24450;DHT22;13349;50.984;5.822;2023-03-23T00:28:55;12.80;99.90
24450;DHT22;13349;50.984;5.822;2023-03-23T00:31:22;12.90;99.90
24450;DHT22;13349;50.984;5.822;2023-03-23T00:33:48;12.90;99.90
24450;DHT22;13349;50.984;5.822;2023-03-23T00:36:17;12.90;99.90
24450;DHT22;13349;50.984;5.822;2023-03-23T00:38:45;12.90;99.90
24450;DHT22;13349;50.984;5.822;2023-03-23T00:41:12;12.80;99.90
24450;DHT22;13349;50.984;5.822;2023-03-23T00:43:40;12.90;99.90
24450;DHT22;13349;50.984;5.822;2023-03-23T00:46:07;12.90;99.90
24450;DHT22;13349;50.984;5.822;2023-03-23T00:48:35;12.90;99.90
24450;DHT22;13349;50.984;5.822;2023-03-23T00:51:06;12.90;99.90
24450;DHT22;13349;50.984;5.822;2023-03-23T00:53:39;13.00;99.90
24450;DHT22;13349;50.984;5.822;2023-03-23T00:56:06;13.00;99.90
24450;DHT22;13349;50.984;5.822;2023-03-23T00:58:34;13.00;99.90
24450;DHT22;13349;50.984;5.822;2023-03-23T01:01:01;13.00;1.00
24450;DHT22;13349;50.984;5.822;2023-03-23T01:03:28;13.00;1.00
24450;DHT22;13349;50.984;5.822;2023-03-23T01:05:55;12.90;1.00
24450;DHT22;13349;50.984;5.822;2023-03-23T01:08:23;12.90;1.00
24450;DHT22;13349;50.984;5.822;2023-03-23T01:10:51;12.80;1.00
24450;DHT22;13349;50.984;5.822;2023-03-23T01:13:27;12.70;1.00
24450;DHT22;13349;50.984;5.822;2023-03-23T01:15:54;12.70;1.00
24450;DHT22;13349;50.984;5.822;2023-03-23T01:18:21;12.70;1.00
24450;DHT22;13349;50.984;5.822;2023-03-23T01:20:48;12.60;1.00
24450;DHT22;13349;50.984;5.822;2023-03-23T01:23:15;12.60;1.00
24450;DHT22;13349;50.984;5.822;2023-03-23T01:25:42;12.60;1.00
24450;DHT22;13349;50.984;5.822;2023-03-23T01:28:12;12.50;1.00
24450;DHT22;13349;50.984;5.822;2023-03-23T01:30:39;12.50;99.90
24450;DHT22;13349;50.984;5.822;2023-03-23T01:33:06;12.50;99.90
24450;DHT22;13349;50.984;5.822;2023-03-23T01:35:32;12.50;99.90
24450;DHT22;13349;50.984;5.822;2023-03-23T01:37:59;12.40;99.90
24450;DHT22;13349;50.984;5.822;2023-03-23T01:40:26;12.30;1.00
24450;DHT22;13349;50.984;5.822;2023-03-23T01:42:53;12.30;1.00
24450;DHT22;13349;50.984;5.822;2023-03-23T01:45:24;12.30;1.00
24450;DHT22;13349;50.984;5.822;2023-03-23T01:47:52;12.30;1.00
24450;DHT22;13349;50.984;5.822;2023-03-23T01:50:22;12.30;1.00
24450;DHT22;13349;50.984;5.822;2023-03-23T01:52:50;12.30;1.00
24450;DHT22;13349;50.984;5.822;2023-03-23T01:55:18;12.30;1.00
24450;DHT22;13349;50.984;5.822;2023-03-23T01:57:45;12.30;1.00
24450;DHT22;13349;50.984;5.822;2023-03-23T02:00:12;12.20;3.70
24450;DHT22;13349;50.984;5.822;2023-03-23T02:02:43;12.30;38.60
24450;DHT22;13349;50.984;5.822;2023-03-23T02:05:12;12.20;96.80
24450;DHT22;13349;50.984;5.822;2023-03-23T02:07:40;12.30;99.90
24450;DHT22;13349;50.984;5.822;2023-03-23T02:10:07;12.30;99.90
24450;DHT22;13349;50.984;5.822;2023-03-23T02:12:34;12.50;99.90
24450;DHT22;13349;50.984;5.822;2023-03-23T02:15:02;12.60;45.70
24450;DHT22;13349;50.984;5.822;2023-03-23T02:17:31;12.70;1.00
24450;DHT22;13349;50.984;5.822;2023-03-23T02:20:10;12.70;1.00
24450;DHT22;13349;50.984;5.822;2023-03-23T02:25:46;12.60;1.00
24450;DHT22;13349;50.984;5.822;2023-03-23T02:28:31;12.50;1.00
24450;DHT22;13349;50.984;5.822;2023-03-23T02:31:08;12.50;1.00
24450;DHT22;13349;50.984;5.822;2023-03-23T02:33:45;12.50;1.00
24450;DHT22;13349;50.984;5.822;2023-03-23T02:36:16;12.50;1.00
24450;DHT22;13349;50.984;5.822;2023-03-23T02:38:48;12.50;1.00
24450;DHT22;13349;50.984;5.822;2023-03-23T02:41:18;12.50;1.00
24450;DHT22;13349;50.984;5.822;2023-03-23T02:43:46;12.40;1.00
24450;DHT22;13349;50.984;5.822;2023-03-23T02:46:13;12.50;1.00
24450;DHT22;13349;50.984;5.822;2023-03-23T02:48:40;12.50;1.00
24450;DHT22;13349;50.984;5.822;2023-03-23T02:51:10;12.50;1.00
24450;DHT22;13349;50.984;5.822;2023-03-23T02:53:38;12.50;1.00
24450;DHT22;13349;50.984;5.822;2023-03-23T02:56:06;12.40;1.00
24450;DHT22;13349;50.984;5.822;2023-03-23T02:58:35;12.40;1.00
24450;DHT22;13349;50.984;5.822;2023-03-23T03:01:12;12.50;1.00
24450;DHT22;13349;50.984;5.822;2023-03-23T03:03:41;12.50;1.00
24450;DHT22;13349;50.984;5.822;2023-03-23T03:06:09;12.50;1.00
24450;DHT22;13349;50.984;5.822;2023-03-23T03:08:40;12.50;1.00
24450;DHT22;13349;50.984;5.822;2023-03-23T03:11:11;12.40;1.00
24450;DHT22;13349;50.984;5.822;2023-03-23T03:13:41;12.50;1.00
24450;DHT22;13349;50.984;5.822;2023-03-23T03:16:12;12.40;1.00
24450;DHT22;13349;50.984;5.822;2023-03-23T03:18:42;12.50;1.00
24450;DHT22;13349;50.984;5.822;2023-03-23T03:21:11;12.40;1.00
24450;DHT22;13349;50.984;5.822;2023-03-23T03:23:42;12.40;1.00
24450;DHT22;13349;50.984;5.822;2023-03-23T03:26:11;12.40;1.00
24450;DHT22;13349;50.984;5.822;2023-03-23T03:28:43;12.60;1.00
24450;DHT22;13349;50.984;5.822;2023-03-23T03:31:13;12.60;1.00
24450;DHT22;13349;50.984;5.822;2023-03-23T03:33:41;12.50;1.00
24450;DHT22;13349;50.984;5.822;2023-03-23T03:36:08;12.50;1.00
24450;DHT22;13349;50.984;5.822;2023-03-23T03:38:43;12.60;1.00
24450;DHT22;13349;50.984;5.822;2023-03-23T03:41:10;12.50;1.00
24450;DHT22;13349;50.984;5.822;2023-03-23T03:43:37;12.60;1.00
24450;DHT22;13349;50.984;5.822;2023-03-23T03:46:03;12.70;1.00
24450;DHT22;13349;50.984;5.822;2023-03-23T03:48:30;12.70;1.00
24450;DHT22;13349;50.984;5.822;2023-03-23T03:50:58;12.70;1.00
24450;DHT22;13349;50.984;5.822;2023-03-23T03:53:25;12.70;1.00
24450;DHT22;13349;50.984;5.822;2023-03-23T03:55:54;12.70;1.00
24450;DHT22;13349;50.984;5.822;2023-03-23T03:58:25;12.60;1.00
24450;DHT22;13349;50.984;5.822;2023-03-23T04:00:57;12.60;1.00
24450;DHT22;13349;50.984;5.822;2023-03-23T04:03:24;12.70;99.90
24450;DHT22;13349;50.984;5.822;2023-03-23T04:05:52;12.70;99.90
24450;DHT22;13349;50.984;5.822;2023-03-23T04:08:20;12.70;99.90
24450;DHT22;13349;50.984;5.822;2023-03-23T04:10:47;12.70;99.90
24450;DHT22;13349;50.984;5.822;2023-03-23T04:13:15;12.70;99.90
24450;DHT22;13349;50.984;5.822;2023-03-23T04:15:43;12.60;99.90
24450;DHT22;13349;50.984;5.822;2023-03-23T04:18:10;12.60;99.90
24450;DHT22;13349;50.984;5.822;2023-03-23T04:20:37;12.60;99.90
24450;DHT22;13349;50.984;5.822;2023-03-23T04:23:03;12.60;99.90
24450;DHT22;13349;50.984;5.822;2023-03-23T04:25:30;12.60;99.90
24450;DHT22;13349;50.984;5.822;2023-03-23T04:27:58;12.60;76.00
24450;DHT22;13349;50.984;5.822;2023-03-23T04:30:28;12.60;92.50
24450;DHT22;13349;50.984;5.822;2023-03-23T04:32:57;12.70;1.00
24450;DHT22;13349;50.984;5.822;2023-03-23T04:35:26;12.70;1.00
24450;DHT22;13349;50.984;5.822;2023-03-23T04:37:53;12.70;1.00
24450;DHT22;13349;50.984;5.822;2023-03-23T04:40:20;12.60;1.00
24450;DHT22;13349;50.984;5.822;2023-03-23T04:42:47;12.70;1.00
24450;DHT22;13349;50.984;5.822;2023-03-23T04:45:18;12.60;1.00
24450;DHT22;13349;50.984;5.822;2023-03-23T04:47:50;12.50;1.00
24450;DHT22;13349;50.984;5.822;2023-03-23T04:50:23;12.60;1.00
24450;DHT22;13349;50.984;5.822;2023-03-23T04:52:51;12.60;1.00
24450;DHT22;13349;50.984;5.822;2023-03-23T04:55:19;12.60;1.00
24450;DHT22;13349;50.984;5.822;2023-03-23T04:57:47;12.60;1.00
24450;DHT22;13349;50.984;5.822;2023-03-23T05:00:14;12.70;1.00
24450;DHT22;13349;50.984;5.822;2023-03-23T05:02:42;12.60;1.00
24450;DHT22;13349;50.984;5.822;2023-03-23T05:05:11;12.50;1.00
24450;DHT22;13349;50.984;5.822;2023-03-23T05:07:38;12.60;1.00
24450;DHT22;13349;50.984;5.822;2023-03-23T05:10:06;12.70;1.00
24450;DHT22;13349;50.984;5.822;2023-03-23T05:12:33;12.60;1.00
24450;DHT22;13349;50.984;5.822;2023-03-23T05:15:00;12.60;99.90
24450;DHT22;13349;50.984;5.822;2023-03-23T05:17:27;12.60;99.90
24450;DHT22;13349;50.984;5.822;2023-03-23T05:19:55;12.70;99.90
24450;DHT22;13349;50.984;5.822;2023-03-23T05:22:24;12.60;99.90
24450;DHT22;13349;50.984;5.822;2023-03-23T05:24:52;12.60;99.90
24450;DHT22;13349;50.984;5.822;2023-03-23T05:27:19;12.60;99.90
24450;DHT22;13349;50.984;5.822;2023-03-23T05:29:46;12.50;99.90
24450;DHT22;13349;50.984;5.822;2023-03-23T05:32:17;12.60;81.60
24450;DHT22;13349;50.984;5.822;2023-03-23T05:34:44;12.60;1.00
24450;DHT22;13349;50.984;5.822;2023-03-23T05:37:12;12.60;1.00
24450;DHT22;13349;50.984;5.822;2023-03-23T05:39:40;12.60;1.00
24450;DHT22;13349;50.984;5.822;2023-03-23T05:42:07;12.60;1.00
24450;DHT22;13349;50.984;5.822;2023-03-23T05:44:34;12.60;1.00
24450;DHT22;13349;50.984;5.822;2023-03-23T05:47:02;12.60;1.00
24450;DHT22;13349;50.984;5.822;2023-03-23T05:49:29;12.60;1.00
24450;DHT22;13349;50.984;5.822;2023-03-23T05:51:56;12.50;1.00
24450;DHT22;13349;50.984;5.822;2023-03-23T05:54:24;12.50;1.00
24450;DHT22;13349;50.984;5.822;2023-03-23T05:56:52;12.50;1.00
24450;DHT22;13349;50.984;5.822;2023-03-23T05:59:19;12.40;1.00
24450;DHT22;13349;50.984;5.822;2023-03-23T06:01:46;12.50;1.00
24450;DHT22;13349;50.984;5.822;2023-03-23T06:04:13;12.40;1.00
24450;DHT22;13349;50.984;5.822;2023-03-23T06:06:42;12.40;1.00
24450;DHT22;13349;50.984;5.822;2023-03-23T06:09:09;12.40;1.00
24450;DHT22;13349;50.984;5.822;2023-03-23T06:11:36;12.40;1.00
24450;DHT22;13349;50.984;5.822;2023-03-23T06:14:05;12.50;1.00
24450;DHT22;13349;50.984;5.822;2023-03-23T06:16:32;12.50;1.00
24450;DHT22;13349;50.984;5.822;2023-03-23T06:18:59;12.50;1.00
24450;DHT22;13349;50.984;5.822;2023-03-23T06:21:27;12.50;1.00
24450;DHT22;13349;50.984;5.822;2023-03-23T06:23:54;12.50;1.00
24450;DHT22;13349;50.984;5.822;2023-03-23T06:26:22;12.50;1.00
24450;DHT22;13349;50.984;5.822;2023-03-23T06:28:50;12.50;1.00
24450;DHT22;13349;50.984;5.822;2023-03-23T06:31:19;12.50;1.00
24450;DHT22;13349;50.984;5.822;2023-03-23T06:33:45;12.60;1.00
24450;DHT22;13349;50.984;5.822;2023-03-23T06:36:12;12.60;1.00
24450;DHT22;13349;50.984;5.822;2023-03-23T06:38:39;12.70;1.00
24450;DHT22;13349;50.984;5.822;2023-03-23T06:41:06;12.60;1.00
24450;DHT22;13349;50.984;5.822;2023-03-23T06:43:34;12.60;1.00
24450;DHT22;13349;50.984;5.822;2023-03-23T06:46:01;12.60;1.00
24450;DHT22;13349;50.984;5.822;2023-03-23T06:48:29;12.60;1.00
24450;DHT22;13349;50.984;5.822;2023-03-23T06:50:57;12.70;1.00
24450;DHT22;13349;50.984;5.822;2023-03-23T06:53:24;12.60;1.00
24450;DHT22;13349;50.984;5.822;2023-03-23T06:55:51;12.70;1.00
24450;DHT22;13349;50.984;5.822;2023-03-23T06:58:18;12.70;1.00
24450;DHT22;13349;50.984;5.822;2023-03-23T07:00:44;12.80;1.00
24450;DHT22;13349;50.984;5.822;2023-03-23T07:03:12;12.80;1.00
24450;DHT22;13349;50.984;5.822;2023-03-23T07:05:40;12.80;1.00
24450;DHT22;13349;50.984;5.822;2023-03-23T07:08:07;12.80;1.00
24450;DHT22;13349;50.984;5.822;2023-03-23T07:10:34;12.80;1.00
24450;DHT22;13349;50.984;5.822;2023-03-23T07:13:00;12.80;1.00
24450;DHT22;13349;50.984;5.822;2023-03-23T07:15:27;12.80;1.00
24450;DHT22;13349;50.984;5.822;2023-03-23T07:17:54;12.80;1.00
24450;DHT22;13349;50.984;5.822;2023-03-23T07:20:21;12.90;1.00
24450;DHT22;13349;50.984;5.822;2023-03-23T07:22:49;12.90;1.00
24450;DHT22;13349;50.984;5.822;2023-03-23T07:25:16;12.90;99.90
24450;DHT22;13349;50.984;5.822;2023-03-23T07:27:44;13.00;99.90
24450;DHT22;13349;50.984;5.822;2023-03-23T07:30:11;13.00;99.90
24450;DHT22;13349;50.984;5.822;2023-03-23T07:32:39;13.00;99.90
24450;DHT22;13349;50.984;5.822;2023-03-23T07:35:06;13.00;99.90
24450;DHT22;13349;50.984;5.822;2023-03-23T07:37:33;13.00;99.90
24450;DHT22;13349;50.984;5.822;2023-03-23T07:40:02;13.10;99.90
24450;DHT22;13349;50.984;5.822;2023-03-23T07:42:40;13.10;99.90
24450;DHT22;13349;50.984;5.822;2023-03-23T07:45:07;13.10;99.90
24450;DHT22;13349;50.984;5.822;2023-03-23T07:47:34;13.10;99.90
24450;DHT22;13349;50.984;5.822;2023-03-23T07:50:01;13.20;99.90
24450;DHT22;13349;50.984;5.822;2023-03-23T07:52:29;13.10;99.90
24450;DHT22;13349;50.984;5.822;2023-03-23T07:54:56;13.20;99.90
24450;DHT22;13349;50.984;5.822;2023-03-23T07:57:25;13.20;99.90
24450;DHT22;13349;50.984;5.822;2023-03-23T07:59:51;13.20;99.90
24450;DHT22;13349;50.984;5.822;2023-03-23T08:02:18;13.20;99.90
24450;DHT22;13349;50.984;5.822;2023-03-23T08:04:45;13.30;86.00
24450;DHT22;13349;50.984;5.822;2023-03-23T08:07:13;13.30;77.80
24450;DHT22;13349;50.984;5.822;2023-03-23T08:09:41;13.30;40.40
24450;DHT22;13349;50.984;5.822;2023-03-23T08:12:08;13.30;51.70
24450;DHT22;13349;50.984;5.822;2023-03-23T08:14:37;13.30;62.70
24450;DHT22;13349;50.984;5.822;2023-03-23T08:17:05;13.30;92.80
24450;DHT22;13349;50.984;5.822;2023-03-23T08:19:32;13.30;99.90
24450;DHT22;13349;50.984;5.822;2023-03-23T08:22:02;13.40;99.90
24450;DHT22;13349;50.984;5.822;2023-03-23T08:24:29;13.60;99.90
24450;DHT22;13349;50.984;5.822;2023-03-23T08:26:55;13.50;99.90
24450;DHT22;13349;50.984;5.822;2023-03-23T08:29:22;13.50;99.90
24450;DHT22;13349;50.984;5.822;2023-03-23T08:31:51;13.40;99.90
24450;DHT22;13349;50.984;5.822;2023-03-23T08:34:18;13.40;99.90
24450;DHT22;13349;50.984;5.822;2023-03-23T08:36:45;13.40;99.90
24450;DHT22;13349;50.984;5.822;2023-03-23T08:39:13;13.40;99.90
24450;DHT22;13349;50.984;5.822;2023-03-23T08:41:41;13.30;99.90
24450;DHT22;13349;50.984;5.822;2023-03-23T08:44:09;13.30;99.90
24450;DHT22;13349;50.984;5.822;2023-03-23T08:46:36;13.30;99.90
24450;DHT22;13349;50.984;5.822;2023-03-23T08:49:04;13.30;99.90
24450;DHT22;13349;50.984;5.822;2023-03-23T08:51:31;13.40;99.90
24450;DHT22;13349;50.984;5.822;2023-03-23T08:53:58;13.30;99.90
24450;DHT22;13349;50.984;5.822;2023-03-23T08:56:25;13.20;99.90
24450;DHT22;13349;50.984;5.822;2023-03-23T08:58:52;13.20;99.90
24450;DHT22;13349;50.984;5.822;2023-03-23T09:01:20;13.20;99.90
24450;DHT22;13349;50.984;5.822;2023-03-23T09:03:46;13.20;99.90
24450;DHT22;13349;50.984;5.822;2023-03-23T09:06:15;13.20;99.90
24450;DHT22;13349;50.984;5.822;2023-03-23T09:08:42;13.20;99.90
24450;DHT22;13349;50.984;5.822;2023-03-23T09:11:10;13.30;99.90
24450;DHT22;13349;50.984;5.822;2023-03-23T09:13:37;13.20;99.90
24450;DHT22;13349;50.984;5.822;2023-03-23T09:16:04;13.30;99.90
24450;DHT22;13349;50.984;5.822;2023-03-23T09:18:31;13.20;99.90
24450;DHT22;13349;50.984;5.822;2023-03-23T09:20:59;13.00;99.90
24450;DHT22;13349;50.984;5.822;2023-03-23T09:23:28;12.70;1.00
24450;DHT22;13349;50.984;5.822;2023-03-23T09:25:55;12.50;1.00
24450;DHT22;13349;50.984;5.822;2023-03-23T09:28:22;12.40;1.00
24450;DHT22;13349;50.984;5.822;2023-03-23T09:30:49;12.50;1.00
24450;DHT22;13349;50.984;5.822;2023-03-23T09:33:17;12.50;1.00
24450;DHT22;13349;50.984;5.822;2023-03-23T09:35:43;12.50;53.70
24450;DHT22;13349;50.984;5.822;2023-03-23T09:38:10;12.50;64.40
24450;DHT22;13349;50.984;5.822;2023-03-23T09:40:42;12.50;95.60
24450;DHT22;13349;50.984;5.822;2023-03-23T09:43:19;12.50;99.90
24450;DHT22;13349;50.984;5.822;2023-03-23T09:45:49;12.50;99.90
24450;DHT22;13349;50.984;5.822;2023-03-23T09:48:37;12.30;1.00
24450;DHT22;13349;50.984;5.822;2023-03-23T09:51:08;11.60;1.00
24450;DHT22;13349;50.984;5.822;2023-03-23T09:53:38;11.10;99.90
24450;DHT22;13349;50.984;5.822;2023-03-23T09:56:10;10.80;90.10
24450;DHT22;13349;50.984;5.822;2023-03-23T09:58:39;10.60;1.00
24450;DHT22;13349;50.984;5.822;2023-03-23T10:01:10;10.50;1.00
24450;DHT22;13349;50.984;5.822;2023-03-23T10:03:40;10.40;99.90
24450;DHT22;13349;50.984;5.822;2023-03-23T10:06:09;10.40;1.00
24450;DHT22;13349;50.984;5.822;2023-03-23T10:08:36;10.30;99.90
24450;DHT22;13349;50.984;5.822;2023-03-23T10:11:06;10.20;26.00
24450;DHT22;13349;50.984;5.822;2023-03-23T10:13:44;10.30;99.90
24450;DHT22;13349;50.984;5.822;2023-03-23T10:16:16;10.30;99.90
24450;DHT22;13349;50.984;5.822;2023-03-23T10:18:46;10.40;99.90
24450;DHT22;13349;50.984;5.822;2023-03-23T10:21:19;10.50;99.90
24450;DHT22;13349;50.984;5.822;2023-03-23T10:23:49;10.50;99.90
24450;DHT22;13349;50.984;5.822;2023-03-23T10:26:28;10.50;99.90
24450;DHT22;13349;50.984;5.822;2023-03-23T10:28:58;10.60;99.90
24450;DHT22;13349;50.984;5.822;2023-03-23T10:31:27;10.90;99.90
24450;DHT22;13349;50.984;5.822;2023-03-23T10:33:56;11.20;99.90
24450;DHT22;13349;50.984;5.822;2023-03-23T10:36:24;11.20;99.90
24450;DHT22;13349;50.984;5.822;2023-03-23T10:38:55;11.10;99.90
24450;DHT22;13349;50.984;5.822;2023-03-23T10:41:23;11.10;99.90
24450;DHT22;13349;50.984;5.822;2023-03-23T10:43:50;11.20;99.90
24450;DHT22;13349;50.984;5.822;2023-03-23T10:46:26;11.20;99.90
24450;DHT22;13349;50.984;5.822;2023-03-23T10:48:56;11.30;99.90
24450;DHT22;13349;50.984;5.822;2023-03-23T10:51:27;11.40;99.90
24450;DHT22;13349;50.984;5.822;2023-03-23T10:53:56;11.40;99.90
24450;DHT22;13349;50.984;5.822;2023-03-23T10:56:24;11.20;99.90
24450;DHT22;13349;50.984;5.822;2023-03-23T10:58:52;11.10;99.90
24450;DHT22;13349;50.984;5.822;2023-03-23T11:01:27;10.90;99.90
24450;DHT22;13349;50.984;5.822;2023-03-23T11:03:56;10.80;99.90
24450;DHT22;13349;50.984;5.822;2023-03-23T11:06:26;10.80;99.90
24450;DHT22;13349;50.984;5.822;2023-03-23T11:08:54;10.80;99.90
24450;DHT22;13349;50.984;5.822;2023-03-23T11:11:24;10.80;99.90
24450;DHT22;13349;50.984;5.822;2023-03-23T11:13:56;10.80;99.90
24450;DHT22;13349;50.984;5.822;2023-03-23T11:16:23;10.80;99.90
24450;DHT22;13349;50.984;5.822;2023-03-23T11:18:50;10.80;99.90
24450;DHT22;13349;50.984;5.822;2023-03-23T11:21:19;10.70;99.90
24450;DHT22;13349;50.984;5.822;2023-03-23T11:23:48;10.70;99.90
24450;DHT22;13349;50.984;5.822;2023-03-23T11:26:16;10.70;99.90
24450;DHT22;13349;50.984;5.822;2023-03-23T11:28:45;10.80;99.90
24450;DHT22;13349;50.984;5.822;2023-03-23T11:31:12;10.90;99.90
24450;DHT22;13349;50.984;5.822;2023-03-23T11:33:42;11.00;99.90
24450;DHT22;13349;50.984;5.822;2023-03-23T11:36:10;10.80;99.90
24450;DHT22;13349;50.984;5.822;2023-03-23T11:38:40;11.00;99.90
24450;DHT22;13349;50.984;5.822;2023-03-23T11:41:09;11.00;99.90
24450;DHT22;13349;50.984;5.822;2023-03-23T11:43:38;11.10;99.90
24450;DHT22;13349;50.984;5.822;2023-03-23T11:46:09;11.30;99.90
24450;DHT22;13349;50.984;5.822;2023-03-23T11:48:38;11.40;99.90
24450;DHT22;13349;50.984;5.822;2023-03-23T11:51:08;11.40;99.90
24450;DHT22;13349;50.984;5.822;2023-03-23T11:53:42;11.30;99.90
24450;DHT22;13349;50.984;5.822;2023-03-23T11:56:19;11.20;99.90
24450;DHT22;13349;50.984;5.822;2023-03-23T11:58:48;11.20;99.90
24450;DHT22;13349;50.984;5.822;2023-03-23T12:01:21;11.30;99.90
24450;DHT22;13349;50.984;5.822;2023-03-23T12:03:59;11.40;99.90
24450;DHT22;13349;50.984;5.822;2023-03-23T12:06:31;11.50;99.90
24450;DHT22;13349;50.984;5.822;2023-03-23T12:09:04;11.50;99.90
24450;DHT22;13349;50.984;5.822;2023-03-23T12:11:38;11.70;99.90
24450;DHT22;13349;50.984;5.822;2023-03-23T12:14:11;11.80;99.90
24450;DHT22;13349;50.984;5.822;2023-03-23T12:19:28;12.00;99.90
24450;DHT22;13349;50.984;5.822;2023-03-23T12:21:58;12.30;99.90
24450;DHT22;13349;50.984;5.822;2023-03-23T12:24:33;12.30;99.90
24450;DHT22;13349;50.984;5.822;2023-03-23T12:27:05;12.30;99.90
24450;DHT22;13349;50.984;5.822;2023-03-23T12:29:46;12.30;99.90
24450;DHT22;13349;50.984;5.822;2023-03-23T12:32:31;12.40;99.90
24450;DHT22;13349;50.984;5.822;2023-03-23T12:35:05;12.70;99.90
24450;DHT22;13349;50.984;5.822;2023-03-23T12:37:40;13.10;99.90
24450;DHT22;13349;50.984;5.822;2023-03-23T12:40:25;13.30;99.90
24450;DHT22;13349;50.984;5.822;2023-03-23T12:42:56;13.40;99.90
24450;DHT22;13349;50.984;5.822;2023-03-23T12:45:40;13.60;99.90
24450;DHT22;13349;50.984;5.822;2023-03-23T12:48:11;13.80;99.90
24450;DHT22;13349;50.984;5.822;2023-03-23T12:50:40;13.60;99.90
24450;DHT22;13349;50.984;5.822;2023-03-23T12:53:09;13.70;99.90
24450;DHT22;13349;50.984;5.822;2023-03-23T12:55:40;13.70;99.90
24450;DHT22;13349;50.984;5.822;2023-03-23T12:58:12;13.70;99.90
24450;DHT22;13349;50.984;5.822;2023-03-23T13:00:49;13.50;99.90
24450;DHT22;13349;50.984;5.822;2023-03-23T13:03:20;13.70;99.90
24450;DHT22;13349;50.984;5.822;2023-03-23T13:05:52;13.70;99.90
24450;DHT22;13349;50.984;5.822;2023-03-23T13:08:22;13.60;99.90
24450;DHT22;13349;50.984;5.822;2023-03-23T13:10:52;13.50;99.90
24450;DHT22;13349;50.984;5.822;2023-03-23T13:13:21;13.50;1.00
24450;DHT22;13349;50.984;5.822;2023-03-23T13:15:51;13.40;99.90
24450;DHT22;13349;50.984;5.822;2023-03-23T13:18:24;13.50;99.90
24450;DHT22;13349;50.984;5.822;2023-03-23T13:20:55;13.50;1.00
24450;DHT22;13349;50.984;5.822;2023-03-23T13:23:25;13.50;1.00
24450;DHT22;13349;50.984;5.822;2023-03-23T13:25:55;13.70;99.90
24450;DHT22;13349;50.984;5.822;2023-03-23T13:28:24;13.90;1.00
24450;DHT22;13349;50.984;5.822;2023-03-23T13:30:58;13.80;99.90
24450;DHT22;13349;50.984;5.822;2023-03-23T13:33:26;13.90;1.00
24450;DHT22;13349;50.984;5.822;2023-03-23T13:35:53;13.90;1.00
24450;DHT22;13349;50.984;5.822;2023-03-23T13:38:20;13.90;1.00
24450;DHT22;13349;50.984;5.822;2023-03-23T13:40:48;13.90;99.90
24450;DHT22;13349;50.984;5.822;2023-03-23T13:43:26;13.90;99.90
24450;DHT22;13349;50.984;5.822;2023-03-23T13:45:54;13.90;1.00
24450;DHT22;13349;50.984;5.822;2023-03-23T13:48:23;14.00;1.00
24450;DHT22;13349;50.984;5.822;2023-03-23T13:50:51;13.90;1.00
24450;DHT22;13349;50.984;5.822;2023-03-23T13:53:23;13.80;1.00
24450;DHT22;13349;50.984;5.822;2023-03-23T13:55:51;13.80;1.00
24450;DHT22;13349;50.984;5.822;2023-03-23T13:58:22;13.50;1.00
24450;DHT22;13349;50.984;5.822;2023-03-23T14:01:02;13.40;1.00
24450;DHT22;13349;50.984;5.822;2023-03-23T14:03:37;13.40;1.00
24450;DHT22;13349;50.984;5.822;2023-03-23T14:06:06;13.40;99.90
24450;DHT22;13349;50.984;5.822;2023-03-23T14:08:39;13.20;1.00
24450;DHT22;13349;50.984;5.822;2023-03-23T14:11:14;13.10;1.00
24450;DHT22;13349;50.984;5.822;2023-03-23T14:13:43;13.30;99.90
24450;DHT22;13349;50.984;5.822;2023-03-23T14:16:17;13.50;1.00
24450;DHT22;13349;50.984;5.822;2023-03-23T14:18:50;13.50;1.00
24450;DHT22;13349;50.984;5.822;2023-03-23T14:21:21;13.40;1.00
24450;DHT22;13349;50.984;5.822;2023-03-23T14:23:48;13.40;99.90
24450;DHT22;13349;50.984;5.822;2023-03-23T14:26:16;13.50;99.90
24450;DHT22;13349;50.984;5.822;2023-03-23T14:28:44;13.60;99.90
24450;DHT22;13349;50.984;5.822;2023-03-23T14:31:16;13.70;37.50
24450;DHT22;13349;50.984;5.822;2023-03-23T14:33:44;14.30;1.00
24450;DHT22;13349;50.984;5.822;2023-03-23T14:36:11;14.60;1.00
24450;DHT22;13349;50.984;5.822;2023-03-23T14:38:37;14.90;99.90
24450;DHT22;13349;50.984;5.822;2023-03-23T14:41:05;15.00;99.90
24450;DHT22;13349;50.984;5.822;2023-03-23T14:43:33;15.00;1.00
24450;DHT22;13349;50.984;5.822;2023-03-23T14:46:00;15.10;1.00
24450;DHT22;13349;50.984;5.822;2023-03-23T14:48:29;15.10;1.00
24450;DHT22;13349;50.984;5.822;2023-03-23T14:50:57;15.00;99.90
24450;DHT22;13349;50.984;5.822;2023-03-23T14:53:24;15.00;99.90
24450;DHT22;13349;50.984;5.822;2023-03-23T14:55:52;15.00;99.90
24450;DHT22;13349;50.984;5.822;2023-03-23T14:58:21;14.80;99.90
24450;DHT22;13349;50.984;5.822;2023-03-23T15:00:51;14.70;1.00
24450;DHT22;13349;50.984;5.822;2023-03-23T15:03:20;14.60;4.20
24450;DHT22;13349;50.984;5.822;2023-03-23T15:05:49;14.70;1.00
24450;DHT22;13349;50.984;5.822;2023-03-23T15:08:19;14.90;1.00
24450;DHT22;13349;50.984;5.822;2023-03-23T15:10:53;15.20;1.00
24450;DHT22;13349;50.984;5.822;2023-03-23T15:13:21;15.30;1.00
24450;DHT22;13349;50.984;5.822;2023-03-23T15:15:48;15.20;1.00
24450;DHT22;13349;50.984;5.822;2023-03-23T15:21:07;15.00;99.90
24450;DHT22;13349;50.984;5.822;2023-03-23T15:23:34;15.00;99.90
24450;DHT22;13349;50.984;5.822;2023-03-23T15:26:15;15.00;99.90
24450;DHT22;13349;50.984;5.822;2023-03-23T15:28:42;15.10;99.90
24450;DHT22;13349;50.984;5.822;2023-03-23T15:31:09;15.10;99.90
24450;DHT22;13349;50.984;5.822;2023-03-23T15:33:36;15.20;1.00
24450;DHT22;13349;50.984;5.822;2023-03-23T15:36:07;15.20;1.00
24450;DHT22;13349;50.984;5.822;2023-03-23T15:38:35;15.20;1.00
24450;DHT22;13349;50.984;5.822;2023-03-23T15:41:03;15.10;1.00
24450;DHT22;13349;50.984;5.822;2023-03-23T15:43:31;15.10;1.00
24450;DHT22;13349;50.984;5.822;2023-03-23T15:45:59;15.20;1.00
24450;DHT22;13349;50.984;5.822;2023-03-23T15:48:28;15.20;1.00
24450;DHT22;13349;50.984;5.822;2023-03-23T15:50:56;15.10;1.00
24450;DHT22;13349;50.984;5.822;2023-03-23T15:53:28;15.10;1.00
24450;DHT22;13349;50.984;5.822;2023-03-23T15:55:55;15.10;1.00
24450;DHT22;13349;50.984;5.822;2023-03-23T15:58:24;15.20;1.00